sensor_id;sensor_type;location;lat;lon;timestamp;pressure;altitude;pressure_sealevel;temperature;humidity
9281;BME280;4679;47.966;7.958;2023-11-21T06:29:04;96698.31;;;7.86;84.98
9281;BME280;4679;47.966;7.958;2023-11-21T06:31:07;96695.34;;;7.83;85.10
9281;BME280;4679;47.966;7.958;2023-11-21T06:33:08;96698.56;;;7.85;85.03
9281;BME280;4679;47.966;7.958;2023-11-21T06:35:11;96697.53;;;7.86;85.10
9281;BME280;4679;47.966;7.958;2023-11-21T06:37:11;96700.16;;;7.86;85.21
9281;BME280;4679;47.966;7.958;2023-11-21T06:39:13;96707.28;;;7.85;85.48
9281;BME280;4679;47.966;7.958;2023-11-21T06:41:16;96703.84;;;7.85;85.25
9281;BME280;4679;47.966;7.958;2023-11-21T06:43:18;96703.28;;;7.83;85.37
9281;BME280;4679;47.966;7.958;2023-11-21T06:45:23;96706.47;;;7.85;85.51
9281;BME280;4679;47.966;7.958;2023-11-21T06:47:25;96703.28;;;7.83;85.56
9281;BME280;4679;47.966;7.958;2023-11-21T06:49:30;96708.47;;;7.78;85.84
9281;BME280;4679;47.966;7.958;2023-11-21T06:51:31;96703.19;;;7.78;85.92
9281;BME280;4679;47.966;7.958;2023-11-21T06:53:33;96714.88;;;7.82;85.84
9281;BME280;4679;47.966;7.958;2023-11-21T06:55:34;96712.81;;;7.84;85.75
9281;BME280;4679;47.966;7.958;2023-11-21T06:57:36;96710.72;;;7.86;85.78
9281;BME280;4679;47.966;7.958;2023-11-21T06:59:37;96711.53;;;7.86;85.52
9281;BME280;4679;47.966;7.958;2023-11-21T07:01:40;96717.63;;;7.87;85.35
9281;BME280;4679;47.966;7.958;2023-11-21T07:03:42;96713.59;;;7.84;86.16
9281;BME280;4679;47.966;7.958;2023-11-21T07:05:43;96702.47;;;7.82;86.09
9281;BME280;4679;47.966;7.958;2023-11-21T07:07:44;96700.06;;;7.81;86.23
9281;BME280;4679;47.966;7.958;2023-11-21T07:09:46;96709.59;;;7.82;85.64
9281;BME280;4679;47.966;7.958;2023-11-21T07:11:48;96721.69;;;7.78;86.24
9281;BME280;4679;47.966;7.958;2023-11-21T07:13:49;96719.97;;;7.71;86.22
9281;BME280;4679;47.966;7.958;2023-11-21T07:15:52;96722.63;;;7.71;85.89
9281;BME280;4679;47.966;7.958;2023-11-21T07:17:56;96724.78;;;7.74;86.14
9281;BME280;4679;47.966;7.958;2023-11-21T07:19:57;96722.16;;;7.74;86.07
9281;BME280;4679;47.966;7.958;2023-11-21T07:21:58;96723.41;;;7.72;86.21
9281;BME280;4679;47.966;7.958;2023-11-21T07:24:00;96727.31;;;7.69;86.40
9281;BME280;4679;47.966;7.958;2023-11-21T07:26:02;96734.66;;;7.67;86.19
9281;BME280;4679;47.966;7.958;2023-11-21T07:28:03;96733.88;;;7.67;86.58
9281;BME280;4679;47.966;7.958;2023-11-21T07:30:06;96735.72;;;7.66;86.67
9281;BME280;4679;47.966;7.958;2023-11-21T07:32:10;96733.63;;;7.68;86.20
9281;BME280;4679;47.966;7.958;2023-11-21T07:34:14;96734.66;;;7.67;86.18
9281;BME280;4679;47.966;7.958;2023-11-21T07:36:16;96735.81;;;7.71;86.38
9281;BME280;4679;47.966;7.958;2023-11-21T07:38:19;96730.31;;;7.73;86.24
9281;BME280;4679;47.966;7.958;2023-11-21T07:40:19;96735.34;;;7.74;86.27
9281;BME280;4679;47.966;7.958;2023-11-21T07:42:23;96733.28;;;7.76;86.61
9281;BME280;4679;47.966;7.958;2023-11-21T07:44:24;96731.75;;;7.81;86.37
9281;BME280;4679;47.966;7.958;2023-11-21T07:46:26;96737.16;;;7.86;86.39
9281;BME280;4679;47.966;7.958;2023-11-21T07:48:28;96733.47;;;7.87;86.66
9281;BME280;4679;47.966;7.958;2023-11-21T07:50:31;96733.25;;;7.88;86.55
9281;BME280;4679;47.966;7.958;2023-11-21T07:52:33;96735.72;;;7.95;86.70
9281;BME280;4679;47.966;7.958;2023-11-21T07:54:34;96732.38;;;7.99;86.67
9281;BME280;4679;47.966;7.958;2023-11-21T07:56:36;96727.91;;;8.00;86.67
9281;BME280;4679;47.966;7.958;2023-11-21T07:58:38;96737.91;;;7.98;86.26
9281;BME280;4679;47.966;7.958;2023-11-21T08:00:39;96736.06;;;7.98;86.38
9281;BME280;4679;47.966;7.958;2023-11-21T08:02:41;96747.44;;;7.99;86.31
9281;BME280;4679;47.966;7.958;2023-11-21T08:04:46;96746.97;;;8.02;86.07
9281;BME280;4679;47.966;7.958;2023-11-21T08:06:50;96747.53;;;8.04;86.61
9281;BME280;4679;47.966;7.958;2023-11-21T08:08:52;96752.13;;;8.08;86.54
9281;BME280;4679;47.966;7.958;2023-11-21T08:10:54;96762.19;;;8.11;86.71
9281;BME280;4679;47.966;7.958;2023-11-21T08:12:57;96758.75;;;8.11;86.80
9281;BME280;4679;47.966;7.958;2023-11-21T08:14:58;96758.28;;;8.14;86.75
9281;BME280;4679;47.966;7.958;2023-11-21T08:17:00;96755.16;;;8.17;86.58
9281;BME280;4679;47.966;7.958;2023-11-21T08:19:02;96757.81;;;8.17;87.08
9281;BME280;4679;47.966;7.958;2023-11-21T08:21:04;96759.75;;;8.22;86.09
9281;BME280;4679;47.966;7.958;2023-11-21T08:23:07;96765.34;;;8.25;86.60
9281;BME280;4679;47.966;7.958;2023-11-21T08:25:08;96765.69;;;8.29;86.42
9281;BME280;4679;47.966;7.958;2023-11-21T08:27:10;96764.19;;;8.33;86.46
9281;BME280;4679;47.966;7.958;2023-11-21T08:29:11;96770.84;;;8.35;86.41
9281;BME280;4679;47.966;7.958;2023-11-21T08:31:12;96763.72;;;8.36;86.42
9281;BME280;4679;47.966;7.958;2023-11-21T08:33:14;96766.03;;;8.32;86.63
9281;BME280;4679;47.966;7.958;2023-11-21T08:35:16;96775.56;;;8.33;86.72
9281;BME280;4679;47.966;7.958;2023-11-21T08:37:17;96769.03;;;8.36;86.69
9281;BME280;4679;47.966;7.958;2023-11-21T08:39:19;96773.28;;;8.37;86.65
9281;BME280;4679;47.966;7.958;2023-11-21T08:41:21;96779.13;;;8.39;86.53
9281;BME280;4679;47.966;7.958;2023-11-21T08:43:23;96783.91;;;8.42;87.04
9281;BME280;4679;47.966;7.958;2023-11-21T08:45:25;96779.44;;;8.42;86.73
9281;BME280;4679;47.966;7.958;2023-11-21T08:47:27;96777.34;;;8.44;86.96
9281;BME280;4679;47.966;7.958;2023-11-21T08:49:28;96780.56;;;8.46;86.72
9281;BME280;4679;47.966;7.958;2023-11-21T08:51:30;96783.78;;;8.49;86.76
9281;BME280;4679;47.966;7.958;2023-11-21T08:53:32;96778.50;;;8.49;86.76
9281;BME280;4679;47.966;7.958;2023-11-21T08:55:34;96780.09;;;8.50;86.68
9281;BME280;4679;47.966;7.958;2023-11-21T08:57:38;96784.91;;;8.53;86.89
9281;BME280;4679;47.966;7.958;2023-11-21T08:59:40;96783.88;;;8.54;86.80
9281;BME280;4679;47.966;7.958;2023-11-21T09:01:42;96785.22;;;8.56;86.78
9281;BME280;4679;47.966;7.958;2023-11-21T09:03:43;96784.41;;;8.56;86.79
9281;BME280;4679;47.966;7.958;2023-11-21T09:05:45;96790.75;;;8.55;86.82
9281;BME280;4679;47.966;7.958;2023-11-21T09:07:47;96795.72;;;8.51;86.97
9281;BME280;4679;47.966;7.958;2023-11-21T09:09:49;96790.34;;;8.46;86.71
9281;BME280;4679;47.966;7.958;2023-11-21T09:11:51;96794.00;;;8.45;86.88
9281;BME280;4679;47.966;7.958;2023-11-21T09:13:52;96798.16;;;8.41;86.96
9281;BME280;4679;47.966;7.958;2023-11-21T09:15:54;96797.88;;;8.37;87.61
9281;BME280;4679;47.966;7.958;2023-11-21T09:17:56;96804.19;;;8.36;86.58
9281;BME280;4679;47.966;7.958;2023-11-21T09:19:56;96796.31;;;8.41;87.11
9281;BME280;4679;47.966;7.958;2023-11-21T09:21:58;96807.16;;;8.40;86.96
9281;BME280;4679;47.966;7.958;2023-11-21T09:24:00;96804.06;;;8.31;87.13
9281;BME280;4679;47.966;7.958;2023-11-21T09:26:01;96803.78;;;8.16;87.42
9281;BME280;4679;47.966;7.958;2023-11-21T09:28:04;96812.44;;;8.28;87.07
9281;BME280;4679;47.966;7.958;2023-11-21T09:30:08;96822.72;;;8.25;87.24
9281;BME280;4679;47.966;7.958;2023-11-21T09:32:10;96815.31;;;8.27;87.22
9281;BME280;4679;47.966;7.958;2023-11-21T09:34:14;96815.31;;;8.27;87.02
9281;BME280;4679;47.966;7.958;2023-11-21T09:36:16;96818.34;;;8.19;86.88
9281;BME280;4679;47.966;7.958;2023-11-21T09:38:19;96825.94;;;8.15;87.10
9281;BME280;4679;47.966;7.958;2023-11-21T09:40:21;96821.00;;;8.19;87.15
9281;BME280;4679;47.966;7.958;2023-11-21T09:42:28;96828.31;;;8.28;87.13
9281;BME280;4679;47.966;7.958;2023-11-21T09:44:36;96822.22;;;8.39;86.68
9281;BME280;4679;47.966;7.958;2023-11-21T09:46:42;96817.47;;;8.41;86.48
9281;BME280;4679;47.966;7.958;2023-11-21T09:48:44;96822.06;;;8.46;86.68
9281;BME280;4679;47.966;7.958;2023-11-21T09:50:47;96821.72;;;8.42;86.97
9281;BME280;4679;47.966;7.958;2023-11-21T09:52:54;96827.34;;;8.46;86.83
9281;BME280;4679;47.966;7.958;2023-11-21T09:54:57;96818.25;;;8.54;87.00
9281;BME280;4679;47.966;7.958;2023-11-21T09:56:59;96823.69;;;8.64;86.62
9281;BME280;4679;47.966;7.958;2023-11-21T09:59:01;96817.78;;;8.73;86.00
9281;BME280;4679;47.966;7.958;2023-11-21T10:01:08;96818.97;;;8.66;86.07
9281;BME280;4679;47.966;7.958;2023-11-21T10:03:10;96823.31;;;8.55;86.52
9281;BME280;4679;47.966;7.958;2023-11-21T10:05:12;96833.53;;;8.52;86.72
9281;BME280;4679;47.966;7.958;2023-11-21T10:07:17;96827.22;;;8.53;86.47
9281;BME280;4679;47.966;7.958;2023-11-21T10:09:19;96834.25;;;8.47;86.61
9281;BME280;4679;47.966;7.958;2023-11-21T10:11:23;96825.91;;;8.38;86.95
9281;BME280;4679;47.966;7.958;2023-11-21T10:13:26;96829.59;;;8.37;86.74
9281;BME280;4679;47.966;7.958;2023-11-21T10:15:30;96834.63;;;8.39;86.67
9281;BME280;4679;47.966;7.958;2023-11-21T10:17:35;96835.19;;;8.41;86.70
9281;BME280;4679;47.966;7.958;2023-11-21T10:19:43;96831.50;;;8.42;86.57
9281;BME280;4679;47.966;7.958;2023-11-21T10:21:47;96835.97;;;8.41;86.67
9281;BME280;4679;47.966;7.958;2023-11-21T10:23:50;96840.72;;;8.39;86.47
9281;BME280;4679;47.966;7.958;2023-11-21T10:25:53;96847.53;;;8.35;86.51
9281;BME280;4679;47.966;7.958;2023-11-21T10:27:58;96842.00;;;8.37;86.98
9281;BME280;4679;47.966;7.958;2023-11-21T10:30:02;96842.88;;;8.42;86.66
9281;BME280;4679;47.966;7.958;2023-11-21T10:32:05;96840.56;;;8.46;86.86
9281;BME280;4679;47.966;7.958;2023-11-21T10:34:25;96841.19;;;8.36;86.47
9281;BME280;4679;47.966;7.958;2023-11-21T10:36:28;96845.09;;;8.34;87.14
9281;BME280;4679;47.966;7.958;2023-11-21T10:38:33;96843.03;;;8.36;86.84
9281;BME280;4679;47.966;7.958;2023-11-21T10:40:43;96844.09;;;8.23;86.42
9281;BME280;4679;47.966;7.958;2023-11-21T10:42:46;96840.88;;;8.21;87.04
9281;BME280;4679;47.966;7.958;2023-11-21T10:44:48;96846.63;;;8.18;87.00
9281;BME280;4679;47.966;7.958;2023-11-21T10:46:51;96844.44;;;8.15;87.24
9281;BME280;4679;47.966;7.958;2023-11-21T10:48:56;96843.84;;;8.25;87.30
9281;BME280;4679;47.966;7.958;2023-11-21T10:50:59;96842.91;;;8.31;86.38
9281;BME280;4679;47.966;7.958;2023-11-21T10:53:01;96837.19;;;8.34;87.03
9281;BME280;4679;47.966;7.958;2023-11-21T10:55:16;96844.88;;;8.35;86.82
9281;BME280;4679;47.966;7.958;2023-11-21T10:57:18;96844.41;;;8.38;86.74
9281;BME280;4679;47.966;7.958;2023-11-21T10:59:22;96839.66;;;8.40;87.07
9281;BME280;4679;47.966;7.958;2023-11-21T11:01:26;96843.03;;;8.36;86.74
9281;BME280;4679;47.966;7.958;2023-11-21T11:03:31;96838.88;;;8.28;86.88
9281;BME280;4679;47.966;7.958;2023-11-21T11:05:33;96837.84;;;8.29;87.12
9281;BME280;4679;47.966;7.958;2023-11-21T11:07:38;96835.78;;;8.31;87.00
9281;BME280;4679;47.966;7.958;2023-11-21T11:09:43;96835.91;;;8.36;87.03
9281;BME280;4679;47.966;7.958;2023-11-21T11:11:47;96832.81;;;8.39;86.76
9281;BME280;4679;47.966;7.958;2023-11-21T11:13:49;96843.03;;;8.36;86.60
9281;BME280;4679;47.966;7.958;2023-11-21T11:15:51;96844.63;;;8.25;86.87
9281;BME280;4679;47.966;7.958;2023-11-21T11:17:59;96844.88;;;8.35;87.34
9281;BME280;4679;47.966;7.958;2023-11-21T11:20:04;96835.97;;;8.41;86.93
9281;BME280;4679;47.966;7.958;2023-11-21T11:22:16;96843.22;;;8.46;87.04
9281;BME280;4679;47.966;7.958;2023-11-21T11:24:36;96833.03;;;8.38;86.94
9281;BME280;4679;47.966;7.958;2023-11-21T11:26:47;96845.78;;;8.29;87.09
9281;BME280;4679;47.966;7.958;2023-11-21T11:28:59;96843.28;;;8.34;87.03
9281;BME280;4679;47.966;7.958;2023-11-21T11:31:06;96848.41;;;8.41;87.00
9281;BME280;4679;47.966;7.958;2023-11-21T11:33:25;96839.19;;;8.43;86.95
9281;BME280;4679;47.966;7.958;2023-11-21T11:35:33;96845.75;;;8.41;86.99
9281;BME280;4679;47.966;7.958;2023-11-21T11:37:35;96843.09;;;8.41;87.12
9281;BME280;4679;47.966;7.958;2023-11-21T11:39:40;96847.84;;;8.39;87.37
9281;BME280;4679;47.966;7.958;2023-11-21T11:41:43;96850.72;;;8.37;87.51
9281;BME280;4679;47.966;7.958;2023-11-21T11:43:45;96850.72;;;8.37;86.53
9281;BME280;4679;47.966;7.958;2023-11-21T11:45:47;96849.94;;;8.37;87.38
9281;BME280;4679;47.966;7.958;2023-11-21T11:47:56;96845.91;;;8.34;87.25
9281;BME280;4679;47.966;7.958;2023-11-21T11:50:00;96850.03;;;8.30;87.07
9281;BME280;4679;47.966;7.958;2023-11-21T11:52:37;96844.56;;;8.20;87.48
9281;BME280;4679;47.966;7.958;2023-11-21T11:54:42;96848.22;;;8.19;87.45
9281;BME280;4679;47.966;7.958;2023-11-21T11:56:45;96847.78;;;8.22;87.99
9281;BME280;4679;47.966;7.958;2023-11-21T11:58:50;96851.56;;;8.15;87.57
9281;BME280;4679;47.966;7.958;2023-11-21T12:00:51;96846.97;;;8.22;87.23
9281;BME280;4679;47.966;7.958;2023-11-21T12:02:56;96853.69;;;8.29;87.53
9281;BME280;4679;47.966;7.958;2023-11-21T12:04:59;96858.19;;;8.29;87.72
9281;BME280;4679;47.966;7.958;2023-11-21T12:07:00;96847.84;;;8.27;87.57
9281;BME280;4679;47.966;7.958;2023-11-21T12:09:03;96850.72;;;8.26;87.70
9281;BME280;4679;47.966;7.958;2023-11-21T12:11:07;96853.84;;;8.34;87.45
9281;BME280;4679;47.966;7.958;2023-11-21T12:13:11;96852.00;;;8.35;87.58
9281;BME280;4679;47.966;7.958;2023-11-21T12:15:14;96856.47;;;8.34;87.94
9281;BME280;4679;47.966;7.958;2023-11-21T12:17:15;96847.28;;;8.37;87.73
9281;BME280;4679;47.966;7.958;2023-11-21T12:19:16;96854.25;;;8.43;87.40
9281;BME280;4679;47.966;7.958;2023-11-21T12:21:18;96848.03;;;8.49;87.37
9281;BME280;4679;47.966;7.958;2023-11-21T12:23:20;96856.53;;;8.51;87.70
9281;BME280;4679;47.966;7.958;2023-11-21T12:25:23;96850.34;;;8.45;87.46
9281;BME280;4679;47.966;7.958;2023-11-21T12:27:30;96841.38;;;8.46;87.69
9281;BME280;4679;47.966;7.958;2023-11-21T12:29:30;96843.22;;;8.46;87.67
9281;BME280;4679;47.966;7.958;2023-11-21T12:31:33;96842.75;;;8.49;87.55
9281;BME280;4679;47.966;7.958;2023-11-21T12:33:36;96845.63;;;8.48;87.61
9281;BME280;4679;47.966;7.958;2023-11-21T12:35:39;96848.28;;;8.48;87.96
9281;BME280;4679;47.966;7.958;2023-11-21T12:37:41;96850.09;;;8.47;87.74
9281;BME280;4679;47.966;7.958;2023-11-21T12:39:43;96849.06;;;8.48;87.78
9281;BME280;4679;47.966;7.958;2023-11-21T12:41:44;96847.13;;;8.43;88.08
9281;BME280;4679;47.966;7.958;2023-11-21T12:43:47;96855.06;;;8.43;87.92
9281;BME280;4679;47.966;7.958;2023-11-21T12:45:48;96855.97;;;8.49;87.69
9281;BME280;4679;47.966;7.958;2023-11-21T12:47:51;96854.47;;;8.53;87.79
9281;BME280;4679;47.966;7.958;2023-11-21T12:49:53;96853.97;;;8.56;87.72
9281;BME280;4679;47.966;7.958;2023-11-21T12:51:54;96857.69;;;8.55;88.06
9281;BME280;4679;47.966;7.958;2023-11-21T12:53:56;96856.66;;;8.44;87.82
9281;BME280;4679;47.966;7.958;2023-11-21T12:55:58;96858.50;;;8.44;88.10
9281;BME280;4679;47.966;7.958;2023-11-21T12:58:02;96852.41;;;8.43;87.78
9281;BME280;4679;47.966;7.958;2023-11-21T13:00:12;96860.22;;;8.50;88.09
9281;BME280;4679;47.966;7.958;2023-11-21T13:02:27;96858.16;;;8.52;87.87
9281;BME280;4679;47.966;7.958;2023-11-21T13:04:30;96850.78;;;8.54;88.23
9281;BME280;4679;47.966;7.958;2023-11-21T13:06:32;96852.13;;;8.57;88.09
9281;BME280;4679;47.966;7.958;2023-11-21T13:08:39;96850.63;;;8.61;87.96
9281;BME280;4679;47.966;7.958;2023-11-21T13:10:43;96854.63;;;8.63;87.94
9281;BME280;4679;47.966;7.958;2023-11-21T13:12:46;96855.22;;;8.65;87.74
9281;BME280;4679;47.966;7.958;2023-11-21T13:14:48;96858.41;;;8.67;88.01
9281;BME280;4679;47.966;7.958;2023-11-21T13:16:51;96854.50;;;8.70;88.02
9281;BME280;4679;47.966;7.958;2023-11-21T13:18:53;96856.88;;;8.71;88.02
9281;BME280;4679;47.966;7.958;2023-11-21T13:20:54;96866.28;;;8.79;88.07
9281;BME280;4679;47.966;7.958;2023-11-21T13:22:57;96869.75;;;8.79;88.16
9281;BME280;4679;47.966;7.958;2023-11-21T13:24:59;96861.88;;;8.68;88.07
9281;BME280;4679;47.966;7.958;2023-11-21T13:26:59;96870.28;;;8.65;88.13
9281;BME280;4679;47.966;7.958;2023-11-21T13:29:01;96880.28;;;8.63;88.07
9281;BME280;4679;47.966;7.958;2023-11-21T13:31:06;96876.59;;;8.64;88.13
9281;BME280;4679;47.966;7.958;2023-11-21T13:33:22;96885.56;;;8.63;88.08
9281;BME280;4679;47.966;7.958;2023-11-21T13:35:28;96876.25;;;8.60;88.58
9281;BME280;4679;47.966;7.958;2023-11-21T13:37:32;96878.03;;;8.55;88.57
9281;BME280;4679;47.966;7.958;2023-11-21T13:39:33;96885.38;;;8.53;88.78
9281;BME280;4679;47.966;7.958;2023-11-21T13:41:35;96889.94;;;8.57;88.46
9281;BME280;4679;47.966;7.958;2023-11-21T13:43:38;96889.41;;;8.55;88.47
9281;BME280;4679;47.966;7.958;2023-11-21T13:45:40;96887.81;;;8.54;88.49
9281;BME280;4679;47.966;7.958;2023-11-21T13:47:41;96886.50;;;8.57;88.77
9281;BME280;4679;47.966;7.958;2023-11-21T13:49:44;96891.72;;;8.52;88.82
9281;BME280;4679;47.966;7.958;2023-11-21T13:51:45;96883.22;;;8.50;88.73
9281;BME280;4679;47.966;7.958;2023-11-21T13:53:51;96890.09;;;8.51;88.82
9281;BME280;4679;47.966;7.958;2023-11-21T13:55:53;96889.53;;;8.49;88.70
9281;BME280;4679;47.966;7.958;2023-11-21T13:57:57;96893.56;;;8.51;88.73
9281;BME280;4679;47.966;7.958;2023-11-21T13:59:59;96899.19;;;8.55;88.78
9281;BME280;4679;47.966;7.958;2023-11-21T14:02:02;96902.06;;;8.53;88.92
9281;BME280;4679;47.966;7.958;2023-11-21T14:04:17;96899.66;;;8.52;88.96
9281;BME280;4679;47.966;7.958;2023-11-21T14:06:21;96907.13;;;8.55;89.18
9281;BME280;4679;47.966;7.958;2023-11-21T14:08:27;96908.81;;;8.61;88.80
9281;BME280;4679;47.966;7.958;2023-11-21T14:10:30;96911.56;;;8.66;88.75
9281;BME280;4679;47.966;7.958;2023-11-21T14:12:37;96907.41;;;8.70;88.29
9281;BME280;4679;47.966;7.958;2023-11-21T14:14:43;96909.72;;;8.66;88.70
9281;BME280;4679;47.966;7.958;2023-11-21T14:16:45;96914.19;;;8.66;88.75
9281;BME280;4679;47.966;7.958;2023-11-21T14:18:47;96904.19;;;8.68;88.63
9281;BME280;4679;47.966;7.958;2023-11-21T14:20:57;96905.47;;;8.65;89.10
9281;BME280;4679;47.966;7.958;2023-11-21T14:23:00;96909.13;;;8.64;88.58
9281;BME280;4679;47.966;7.958;2023-11-21T14:25:01;96906.72;;;8.63;88.75
9281;BME280;4679;47.966;7.958;2023-11-21T14:27:04;96912.00;;;8.63;89.01
9281;BME280;4679;47.966;7.958;2023-11-21T14:29:06;96917.06;;;8.64;88.79
9281;BME280;4679;47.966;7.958;2023-11-21T14:31:08;96913.41;;;8.65;88.57
9281;BME280;4679;47.966;7.958;2023-11-21T14:33:13;96920.53;;;8.65;88.82
9281;BME280;4679;47.966;7.958;2023-11-21T14:35:16;96925.47;;;8.61;88.47
9281;BME280;4679;47.966;7.958;2023-11-21T14:37:18;96925.47;;;8.61;88.87
9281;BME280;4679;47.966;7.958;2023-11-21T14:39:21;96931.78;;;8.60;88.65
9281;BME280;4679;47.966;7.958;2023-11-21T14:41:23;96933.63;;;8.60;88.84
9281;BME280;4679;47.966;7.958;2023-11-21T14:43:28;96935.13;;;8.56;89.06
9281;BME280;4679;47.966;7.958;2023-11-21T14:45:34;96931.72;;;8.55;88.58
9281;BME280;4679;47.966;7.958;2023-11-21T14:47:36;96934.09;;;8.57;88.90
9281;BME280;4679;47.966;7.958;2023-11-21T14:49:41;96942.75;;;8.52;89.07
9281;BME280;4679;47.966;7.958;2023-11-21T14:51:53;96939.88;;;8.54;88.86
9281;BME280;4679;47.966;7.958;2023-11-21T14:54:00;96939.66;;;8.55;88.91
9281;BME280;4679;47.966;7.958;2023-11-21T14:56:09;96947.25;;;8.52;89.42
9281;BME280;4679;47.966;7.958;2023-11-21T14:58:10;96948.03;;;8.52;88.27
9281;BME280;4679;47.966;7.958;2023-11-21T15:00:16;96947.25;;;8.52;89.28
9281;BME280;4679;47.966;7.958;2023-11-21T15:02:38;96946.44;;;8.51;88.92
9281;BME280;4679;47.966;7.958;2023-11-21T15:04:50;96951.97;;;8.50;88.79
9281;BME280;4679;47.966;7.958;2023-11-21T15:06:53;96951.38;;;8.48;88.97
9281;BME280;4679;47.966;7.958;2023-11-21T15:08:57;96953.56;;;8.51;88.76
9281;BME280;4679;47.966;7.958;2023-11-21T15:11:17;96955.19;;;8.52;88.98
9281;BME280;4679;47.966;7.958;2023-11-21T15:13:19;96955.41;;;8.50;89.28
9281;BME280;4679;47.966;7.958;2023-11-21T15:15:22;96955.41;;;8.50;88.95
9281;BME280;4679;47.966;7.958;2023-11-21T15:17:23;96959.88;;;8.50;89.09
9281;BME280;4679;47.966;7.958;2023-11-21T15:19:26;96963.34;;;8.50;89.28
9281;BME280;4679;47.966;7.958;2023-11-21T15:21:28;96963.34;;;8.50;89.17
9281;BME280;4679;47.966;7.958;2023-11-21T15:23:29;96965.63;;;8.46;89.13
9281;BME280;4679;47.966;7.958;2023-11-21T15:25:31;96966.69;;;8.45;89.07
9281;BME280;4679;47.966;7.958;2023-11-21T15:27:35;96974.84;;;8.44;88.99
9281;BME280;4679;47.966;7.958;2023-11-21T15:29:36;96976.09;;;8.41;89.07
9281;BME280;4679;47.966;7.958;2023-11-21T15:31:39;96977.72;;;8.42;89.19
9281;BME280;4679;47.966;7.958;2023-11-21T15:33:44;96982.41;;;8.40;89.19
9281;BME280;4679;47.966;7.958;2023-11-21T15:35:46;96990.34;;;8.40;89.26
9281;BME280;4679;47.966;7.958;2023-11-21T15:37:47;96982.41;;;8.40;89.29
9281;BME280;4679;47.966;7.958;2023-11-21T15:39:49;96984.75;;;8.37;88.98
9281;BME280;4679;47.966;7.958;2023-11-21T15:41:50;96986.59;;;8.36;89.30
9281;BME280;4679;47.966;7.958;2023-11-21T15:43:53;96986.00;;;8.34;89.62
9281;BME280;4679;47.966;7.958;2023-11-21T15:45:55;96987.63;;;8.35;89.33
9281;BME280;4679;47.966;7.958;2023-11-21T15:47:56;96990.28;;;8.35;89.07
9281;BME280;4679;47.966;7.958;2023-11-21T15:49:58;96992.91;;;8.35;89.77
9281;BME280;4679;47.966;7.958;2023-11-21T15:52:00;96993.38;;;8.32;89.36
9281;BME280;4679;47.966;7.958;2023-11-21T15:54:03;96990.81;;;8.26;89.59
9281;BME280;4679;47.966;7.958;2023-11-21T15:56:04;97001.38;;;8.26;89.73
9281;BME280;4679;47.966;7.958;2023-11-21T15:58:11;97003.78;;;8.27;89.57
9281;BME280;4679;47.966;7.958;2023-11-21T16:00:15;97004.38;;;8.29;89.53
9281;BME280;4679;47.966;7.958;2023-11-21T16:02:20;97004.94;;;8.31;89.73
9281;BME280;4679;47.966;7.958;2023-11-21T16:04:20;97005.97;;;8.30;89.91
9281;BME280;4679;47.966;7.958;2023-11-21T16:06:23;97009.66;;;8.29;89.47
9281;BME280;4679;47.966;7.958;2023-11-21T16:08:25;97004.81;;;8.26;89.45
9281;BME280;4679;47.966;7.958;2023-11-21T16:10:26;97000.56;;;8.25;89.58
9281;BME280;4679;47.966;7.958;2023-11-21T16:12:28;97012.75;;;8.26;89.58
9281;BME280;4679;47.966;7.958;2023-11-21T16:14:31;97008.28;;;8.27;89.59
9281;BME280;4679;47.966;7.958;2023-11-21T16:16:38;97008.28;;;8.27;89.59
9281;BME280;4679;47.966;7.958;2023-11-21T16:18:41;97016.19;;;8.27;89.64
9281;BME280;4679;47.966;7.958;2023-11-21T16:20:42;97013.78;;;8.25;89.59
9281;BME280;4679;47.966;7.958;2023-11-21T16:22:44;97013.69;;;8.20;89.73
9281;BME280;4679;47.966;7.958;2023-11-21T16:24:45;97020.81;;;8.20;89.80
9281;BME280;4679;47.966;7.958;2023-11-21T16:26:47;97022.66;;;8.19;89.75
9281;BME280;4679;47.966;7.958;2023-11-21T16:28:49;97030.00;;;8.17;89.68
9281;BME280;4679;47.966;7.958;2023-11-21T16:30:51;97023.91;;;8.17;89.92
9281;BME280;4679;47.966;7.958;2023-11-21T16:32:54;97028.97;;;8.18;89.78
9281;BME280;4679;47.966;7.958;2023-11-21T16:34:55;97032.19;;;8.20;89.89
9281;BME280;4679;47.966;7.958;2023-11-21T16:36:57;97036.91;;;8.18;89.17
9281;BME280;4679;47.966;7.958;2023-11-21T16:38:59;97042.88;;;8.13;89.64
9281;BME280;4679;47.966;7.958;2023-11-21T16:41:00;97041.03;;;8.14;89.85
9281;BME280;4679;47.966;7.958;2023-11-21T16:43:03;97042.88;;;8.13;89.74
9281;BME280;4679;47.966;7.958;2023-11-21T16:45:06;97052.63;;;8.13;89.78
9281;BME280;4679;47.966;7.958;2023-11-21T16:47:08;97051.03;;;8.12;89.92
9281;BME280;4679;47.966;7.958;2023-11-21T16:49:11;97048.38;;;8.12;89.91
9281;BME280;4679;47.966;7.958;2023-11-21T16:51:17;97058.94;;;8.12;89.87
9281;BME280;4679;47.966;7.958;2023-11-21T16:53:19;97053.88;;;8.10;90.01
9281;BME280;4679;47.966;7.958;2023-11-21T16:55:20;97058.16;;;8.11;89.90
9281;BME280;4679;47.966;7.958;2023-11-21T16:57:23;97058.63;;;8.08;90.05
9281;BME280;4679;47.966;7.958;2023-11-21T16:59:24;97055.19;;;8.08;90.01
9281;BME280;4679;47.966;7.958;2023-11-21T17:01:26;97059.44;;;8.09;89.87
9281;BME280;4679;47.966;7.958;2023-11-21T17:03:29;97060.25;;;8.09;90.08
9281;BME280;4679;47.966;7.958;2023-11-21T17:05:32;97064.47;;;8.10;89.99
9281;BME280;4679;47.966;7.958;2023-11-21T17:07:34;97070.56;;;8.11;90.16
9281;BME280;4679;47.966;7.958;2023-11-21T17:09:36;97073.44;;;8.09;89.91
9281;BME280;4679;47.966;7.958;2023-11-21T17:11:37;97070.56;;;8.11;90.09
9281;BME280;4679;47.966;7.958;2023-11-21T17:13:38;97070.81;;;8.09;89.96
9281;BME280;4679;47.966;7.958;2023-11-21T17:15:42;97081.59;;;8.08;89.83
9281;BME280;4679;47.966;7.958;2023-11-21T17:17:44;97083.44;;;8.07;90.13
9281;BME280;4679;47.966;7.958;2023-11-21T17:19:45;97089.53;;;8.08;90.15
9281;BME280;4679;47.966;7.958;2023-11-21T17:21:49;97084.25;;;8.08;89.91
9281;BME280;4679;47.966;7.958;2023-11-21T17:23:51;97093.78;;;8.09;89.94
9281;BME280;4679;47.966;7.958;2023-11-21T17:25:52;97094.81;;;8.08;90.47
9281;BME280;4679;47.966;7.958;2023-11-21T17:27:54;97094.81;;;8.08;90.24
9281;BME280;4679;47.966;7.958;2023-11-21T17:29:56;97095.84;;;8.07;90.02
9281;BME280;4679;47.966;7.958;2023-11-21T17:31:58;97096.44;;;8.09;89.69
9281;BME280;4679;47.966;7.958;2023-11-21T17:33:59;97088.94;;;8.06;90.19
9281;BME280;4679;47.966;7.958;2023-11-21T17:36:01;97108.47;;;8.05;90.19
9281;BME280;4679;47.966;7.958;2023-11-21T17:38:04;97112.97;;;8.04;89.78
9281;BME280;4679;47.966;7.958;2023-11-21T17:40:07;97105.63;;;8.06;90.26
9281;BME280;4679;47.966;7.958;2023-11-21T17:42:08;97116.75;;;8.08;90.26
9281;BME280;4679;47.966;7.958;2023-11-21T17:44:09;97108.84;;;8.08;90.08
9281;BME280;4679;47.966;7.958;2023-11-21T17:46:11;97119.63;;;8.07;90.33
9281;BME280;4679;47.966;7.958;2023-11-21T17:48:12;97120.44;;;8.07;90.44